createdAt,value
2019-04-03T00:02:04.750Z,22.10
2019-04-03T00:04:30.296Z,22.09
2019-04-03T00:06:56.318Z,22.09
2019-04-03T00:09:22.331Z,22.09
2019-04-03T00:11:48.368Z,22.09
2019-04-03T00:14:14.420Z,22.09
2019-04-03T00:16:40.416Z,22.09
2019-04-03T00:19:06.430Z,22.09
2019-04-03T00:21:32.419Z,22.09
2019-04-03T00:23:58.435Z,22.08
2019-04-03T00:26:24.468Z,22.08
2019-04-03T00:28:50.703Z,22.08
2019-04-03T00:31:16.528Z,22.08
2019-04-03T00:33:42.533Z,22.08
2019-04-03T00:36:08.545Z,22.08
2019-04-03T00:38:34.541Z,22.08
2019-04-03T00:41:00.565Z,22.08
2019-04-03T00:43:26.558Z,22.08
2019-04-03T00:45:54.146Z,22.08
2019-04-03T00:48:18.604Z,22.07
2019-04-03T00:50:44.631Z,22.07
2019-04-03T00:53:10.640Z,22.07
2019-04-03T00:55:36.645Z,22.07
2019-04-03T00:58:02.644Z,22.07
2019-04-03T01:00:28.640Z,22.07
2019-04-03T01:02:54.663Z,22.07
2019-04-03T01:05:20.684Z,22.07
2019-04-03T01:07:46.684Z,22.07
2019-04-03T01:10:12.707Z,22.06
2019-04-03T01:12:38.727Z,22.07
2019-04-03T01:15:04.881Z,22.06
2019-04-03T01:17:30.770Z,22.07
2019-04-03T01:19:56.784Z,22.06
2019-04-03T01:22:22.764Z,22.06
2019-04-03T01:24:48.833Z,22.06
2019-04-03T01:27:14.853Z,22.06
2019-04-03T01:29:42.596Z,22.05
2019-04-03T01:32:06.913Z,22.05
2019-04-03T01:34:33.040Z,22.05
2019-04-03T01:36:59.051Z,22.05
2019-04-03T01:39:25.066Z,22.05
2019-04-03T01:41:51.522Z,22.05
2019-04-03T01:44:17.092Z,22.05
2019-04-03T01:46:43.131Z,22.05
2019-04-03T01:49:10.703Z,22.05
2019-04-03T01:51:35.248Z,22.05
2019-04-03T01:54:02.861Z,22.05
2019-04-03T01:56:27.274Z,22.04
2019-04-03T01:58:53.389Z,22.05
2019-04-03T02:01:19.380Z,22.04
2019-04-03T02:03:45.377Z,22.05
2019-04-03T02:06:13.189Z,22.05
2019-04-03T02:08:37.486Z,22.05
2019-04-03T02:11:03.501Z,22.04
2019-04-03T02:13:29.522Z,22.04
2019-04-03T02:15:55.563Z,22.04
2019-04-03T02:18:21.553Z,22.04
2019-04-03T02:20:47.672Z,22.04
2019-04-03T02:23:13.584Z,22.03
2019-04-03T02:25:39.593Z,22.04
2019-04-03T02:28:05.609Z,22.04
2019-04-03T02:30:31.613Z,22.04
2019-04-03T02:32:58.122Z,22.04
2019-04-03T02:35:23.756Z,22.03
2019-04-03T02:37:50.768Z,22.03
2019-04-03T02:40:15.835Z,22.03
2019-04-03T02:42:42.425Z,22.03
2019-04-03T02:45:07.945Z,22.03
2019-04-03T02:47:34.655Z,22.03
2019-04-03T02:50:00.239Z,22.03
2019-04-03T02:52:26.056Z,22.02
2019-04-03T02:54:52.010Z,22.03
2019-04-03T02:57:18.501Z,22.03
2019-04-03T02:59:44.114Z,22.02
2019-04-03T03:02:12.579Z,22.03
2019-04-03T03:04:36.135Z,22.02
2019-04-03T03:07:04.494Z,22.02
2019-04-03T03:09:28.175Z,22.02
2019-04-03T03:11:56.120Z,22.02
2019-04-03T03:14:20.257Z,22.02
2019-04-03T03:16:49.290Z,22.01
2019-04-03T03:19:12.374Z,22.02
2019-04-03T03:21:38.416Z,22.02
2019-04-03T03:24:04.419Z,22.01
2019-04-03T03:26:30.409Z,22.02
2019-04-03T03:28:56.778Z,22.01
2019-04-03T03:31:44.538Z,22.01
2019-04-03T03:33:48.536Z,22.01
2019-04-03T03:36:19.592Z,22.01
2019-04-03T03:38:40.901Z,22.00
2019-04-03T03:41:06.805Z,22.00
2019-04-03T03:43:37.060Z,22.00
2019-04-03T03:45:58.829Z,22.01
2019-04-03T03:48:24.637Z,22.00
2019-04-03T03:50:50.664Z,22.01
2019-04-03T03:53:16.675Z,22.01
2019-04-03T03:55:43.432Z,22.01
2019-04-03T03:58:12.555Z,22.00
2019-04-03T04:00:34.752Z,22.00
2019-04-03T04:03:00.779Z,22.00
2019-04-03T04:05:27.164Z,22.00
2019-04-03T04:07:53.495Z,22.00
2019-04-03T04:10:18.894Z,22.00
2019-04-03T04:12:45.031Z,22.00
2019-04-03T04:15:10.947Z,21.99
2019-04-03T04:17:36.965Z,22.00
2019-04-03T04:20:05.366Z,22.00
2019-04-03T04:22:29.192Z,21.99
2019-04-03T04:24:55.348Z,21.99
2019-04-03T04:27:21.176Z,21.99
2019-04-03T04:29:47.038Z,21.99
2019-04-03T04:32:14.909Z,21.99
2019-04-03T04:34:39.065Z,22.00
2019-04-03T04:37:05.114Z,21.98
2019-04-03T04:39:31.114Z,21.99
2019-04-03T04:41:57.124Z,21.99
2019-04-03T04:44:23.121Z,21.99
2019-04-03T04:46:49.186Z,21.98
2019-04-03T04:49:15.205Z,21.99
2019-04-03T04:51:41.379Z,22.00
2019-04-03T04:54:07.277Z,21.99
2019-04-03T04:56:33.338Z,21.99
2019-04-03T04:58:59.444Z,21.99
2019-04-03T05:01:25.461Z,22.00
2019-04-03T05:03:53.470Z,22.00
2019-04-03T05:06:17.492Z,22.00
2019-04-03T05:08:43.515Z,22.01
2019-04-03T05:11:09.622Z,22.01
2019-04-03T05:13:35.808Z,22.03
2019-04-03T05:16:01.691Z,22.03
2019-04-03T05:18:29.306Z,22.04
2019-04-03T05:20:54.029Z,22.04
2019-04-03T05:23:19.796Z,22.04
2019-04-03T05:25:45.767Z,22.03
2019-04-03T05:28:11.828Z,22.04
2019-04-03T05:30:38.022Z,22.02
2019-04-03T05:33:03.983Z,22.02
2019-04-03T05:35:29.993Z,22.03
2019-04-03T05:37:56.017Z,22.02
2019-04-03T05:40:22.232Z,22.02
2019-04-03T05:42:48.098Z,22.02
2019-04-03T05:45:14.115Z,22.03
2019-04-03T05:47:40.250Z,22.03
2019-04-03T05:50:06.167Z,22.03
2019-04-03T05:52:33.146Z,22.04
2019-04-03T05:54:58.296Z,22.03
2019-04-03T05:57:24.320Z,22.05
2019-04-03T06:00:00.047Z,22.05
2019-04-03T06:02:20.004Z,22.05
2019-04-03T06:04:42.722Z,22.04
2019-04-03T06:07:08.498Z,22.05
2019-04-03T06:09:34.513Z,22.05
2019-04-03T06:12:00.649Z,22.06
2019-04-03T06:14:26.986Z,22.08
2019-04-03T06:16:55.549Z,22.12
2019-04-03T06:19:18.957Z,22.16
2019-04-03T06:21:46.159Z,22.17
2019-04-03T06:24:11.020Z,22.18
2019-04-03T06:26:44.638Z,22.19
2019-04-03T06:29:09.528Z,22.18
2019-04-03T06:31:35.428Z,22.17
2019-04-03T06:34:01.431Z,22.16
2019-04-03T06:36:27.423Z,22.15
2019-04-03T06:38:54.273Z,22.16
2019-04-03T06:41:19.447Z,22.15
2019-04-03T06:43:47.218Z,22.15
2019-04-03T06:46:11.483Z,22.15
2019-04-03T06:48:37.484Z,22.15
2019-04-03T06:51:03.619Z,22.15
2019-04-03T06:53:29.634Z,22.15
2019-04-03T06:55:55.667Z,22.14
2019-04-03T06:58:21.715Z,22.05
2019-04-03T07:00:47.726Z,22.14
2019-04-03T07:03:13.894Z,22.14
2019-04-03T07:05:41.931Z,22.13
2019-04-03T07:08:06.124Z,22.13
2019-04-03T07:10:31.809Z,22.14
2019-04-03T07:12:57.845Z,22.13
2019-04-03T07:15:24.587Z,22.14
2019-04-03T07:17:49.887Z,22.14
2019-04-03T07:20:19.754Z,22.14
2019-04-03T07:22:42.029Z,22.14
2019-04-03T07:25:08.089Z,22.13
2019-04-03T07:27:36.578Z,22.12
2019-04-03T07:30:00.368Z,22.12
2019-04-03T07:32:26.254Z,22.11
2019-04-03T07:34:52.260Z,22.10
2019-04-03T07:37:19.939Z,22.10
2019-04-03T07:39:44.191Z,22.10
2019-04-03T07:42:10.179Z,22.10
2019-04-03T07:44:36.198Z,22.10
2019-04-03T07:47:04.664Z,22.09
2019-04-03T07:49:30.034Z,22.09
2019-04-03T07:51:55.734Z,22.09
2019-04-03T07:54:22.618Z,22.09
2019-04-03T07:56:47.812Z,22.09
2019-04-03T07:59:13.953Z,22.08
2019-04-03T08:01:41.360Z,22.09
2019-04-03T08:04:05.858Z,22.08
2019-04-03T08:06:34.470Z,22.08
2019-04-03T08:09:07.249Z,22.08
2019-04-03T08:11:23.920Z,22.08
2019-04-03T08:13:50.082Z,22.08
2019-04-03T08:16:16.628Z,22.08
2019-04-03T08:18:41.971Z,22.08
2019-04-03T08:21:08.238Z,22.08
2019-04-03T08:23:34.685Z,22.07
2019-04-03T08:26:00.047Z,22.06
2019-04-03T08:28:29.658Z,22.06
2019-04-03T08:30:52.295Z,22.05
2019-04-03T08:33:20.884Z,22.04
2019-04-03T08:35:44.250Z,22.04
2019-04-03T08:38:12.384Z,22.04
2019-04-03T08:40:36.382Z,22.04
2019-04-03T08:43:02.391Z,22.04
2019-04-03T08:45:28.716Z,22.04
2019-04-03T08:47:54.401Z,22.04
2019-04-03T08:50:20.411Z,22.04
2019-04-03T08:52:46.710Z,22.04
2019-04-03T08:55:14.021Z,22.04
2019-04-03T08:57:38.722Z,22.04
2019-04-03T09:00:04.946Z,22.05
2019-04-03T09:02:32.080Z,22.05
2019-04-03T09:04:58.111Z,22.05
2019-04-03T09:07:26.826Z,22.05
2019-04-03T09:09:53.772Z,22.05
2019-04-03T09:12:19.823Z,22.05
2019-04-03T09:14:47.646Z,22.05
2019-04-03T09:17:13.636Z,22.06
2019-04-03T09:19:44.968Z,22.06
2019-04-03T09:22:17.038Z,22.06
2019-04-03T09:24:43.106Z,22.06
2019-04-03T09:27:10.069Z,22.06
2019-04-03T09:29:35.647Z,22.06
2019-04-03T09:32:01.639Z,22.07
2019-04-03T09:34:29.681Z,22.07
2019-04-03T09:36:54.202Z,22.08
2019-04-03T09:39:20.110Z,22.08
2019-04-03T09:41:48.851Z,22.08
2019-04-03T09:44:13.510Z,22.09
2019-04-03T09:46:39.536Z,22.08
2019-04-03T09:49:07.451Z,22.08
2019-04-03T09:51:31.793Z,22.08
2019-04-03T09:53:58.112Z,22.08
2019-04-03T09:56:23.839Z,22.08
2019-04-03T09:58:49.895Z,22.07
2019-04-03T10:01:18.518Z,22.08
2019-04-03T10:03:41.948Z,22.07
2019-04-03T10:06:07.949Z,22.08
2019-04-03T10:08:33.993Z,22.08
2019-04-03T10:11:00.255Z,22.08
2019-04-03T10:13:26.351Z,22.07
2019-04-03T10:15:52.027Z,22.06
2019-04-03T10:18:18.735Z,22.07
2019-04-03T10:20:44.299Z,22.07
2019-04-03T10:23:10.068Z,22.08
2019-04-03T10:25:37.056Z,22.08
2019-04-03T10:28:02.258Z,22.08
2019-04-03T10:30:28.161Z,22.07
2019-04-03T10:32:54.184Z,22.07
2019-04-03T10:35:20.176Z,22.08
2019-04-03T10:37:47.141Z,22.08
2019-04-03T10:40:13.093Z,22.08
2019-04-03T10:42:39.093Z,22.08
2019-04-03T10:45:04.848Z,22.09
2019-04-03T10:47:41.098Z,22.08
2019-04-03T10:49:56.884Z,22.08
2019-04-03T10:52:22.906Z,22.09
2019-04-03T10:54:49.318Z,22.09
2019-04-03T10:57:14.931Z,22.09
2019-04-03T10:59:41.263Z,22.09
2019-04-03T11:02:07.359Z,22.10
2019-04-03T11:04:32.981Z,22.10
2019-04-03T11:06:59.082Z,22.10
2019-04-03T11:09:24.999Z,22.10
2019-04-03T11:11:51.007Z,22.11
2019-04-03T11:14:17.038Z,22.11
2019-04-03T11:16:45.490Z,22.10
2019-04-03T11:19:09.072Z,22.11
2019-04-03T11:21:35.438Z,22.11
2019-04-03T11:24:01.293Z,22.11
2019-04-03T11:26:27.206Z,22.11
2019-04-03T11:28:53.878Z,22.11
2019-04-03T11:31:25.819Z,22.11
2019-04-03T11:33:46.294Z,22.11
2019-04-03T11:36:11.372Z,22.12
2019-04-03T11:38:37.365Z,22.12
2019-04-03T11:41:12.391Z,22.12
2019-04-03T11:43:30.990Z,22.12
2019-04-03T11:45:55.415Z,22.13
2019-04-03T11:48:21.444Z,22.14
2019-04-03T11:50:47.459Z,22.14
2019-04-03T11:53:13.677Z,22.15
2019-04-03T11:55:41.319Z,22.16
2019-04-03T11:58:05.772Z,22.16
2019-04-03T12:00:31.575Z,22.17
2019-04-03T12:02:57.691Z,22.17
2019-04-03T12:05:23.935Z,22.18
2019-04-03T12:07:50.084Z,22.19
2019-04-03T12:10:15.747Z,22.19
2019-04-03T12:12:42.042Z,22.19
2019-04-03T12:15:07.774Z,22.19
2019-04-03T12:17:33.771Z,22.19
2019-04-03T12:19:59.900Z,22.20
2019-04-03T12:22:25.842Z,22.22
2019-04-03T12:24:51.843Z,22.21
2019-04-03T12:27:17.921Z,22.21
2019-04-03T12:29:44.275Z,22.22
2019-04-03T12:32:10.406Z,22.24
2019-04-03T12:34:37.284Z,22.24
2019-04-03T12:37:02.433Z,22.24
2019-04-03T12:39:28.796Z,22.25
2019-04-03T12:41:54.403Z,22.25
2019-04-03T12:44:21.489Z,22.26
2019-04-03T12:46:46.739Z,22.25
2019-04-03T12:49:12.812Z,22.26
2019-04-03T12:51:38.982Z,22.26
2019-04-03T12:54:04.554Z,22.27
2019-04-03T12:56:30.943Z,22.27
2019-04-03T12:58:56.565Z,22.28
2019-04-03T13:01:23.419Z,22.29
2019-04-03T13:03:48.570Z,22.29
2019-04-03T13:06:14.906Z,22.28
2019-04-03T13:08:40.635Z,22.28
2019-04-03T13:11:06.665Z,22.26
2019-04-03T13:13:32.698Z,22.27
2019-04-03T13:15:58.750Z,22.26
2019-04-03T13:18:24.750Z,22.26
2019-04-03T13:20:50.987Z,22.26
2019-04-03T13:23:16.809Z,22.26
2019-04-03T13:25:43.225Z,22.26
2019-04-03T13:28:08.808Z,22.25
2019-04-03T13:30:34.841Z,22.26
2019-04-03T13:33:05.402Z,22.27
2019-04-03T13:35:26.882Z,22.27
2019-04-03T13:37:53.137Z,22.27
2019-04-03T13:40:18.967Z,22.28
2019-04-03T13:42:47.637Z,22.27
2019-04-03T13:45:11.302Z,22.28
2019-04-03T13:47:40.202Z,22.28
2019-04-03T13:50:03.646Z,22.28
2019-04-03T13:52:39.971Z,22.29
2019-04-03T13:54:57.613Z,22.29
2019-04-03T13:57:21.506Z,22.28
2019-04-03T13:59:47.177Z,22.28
2019-04-03T14:02:14.570Z,22.29
2019-04-03T14:04:39.220Z,22.30
2019-04-03T14:07:07.296Z,22.30
2019-04-03T14:09:31.253Z,22.29
2019-04-03T14:12:00.348Z,22.30
2019-04-03T14:14:23.455Z,22.29
2019-04-03T14:16:49.317Z,22.29
2019-04-03T14:19:15.480Z,22.29
2019-04-03T14:21:41.730Z,22.29
2019-04-03T14:24:08.934Z,22.29
2019-04-03T14:26:33.819Z,22.30
2019-04-03T14:28:59.448Z,22.30
2019-04-03T14:31:34.351Z,22.29
2019-04-03T14:33:51.874Z,22.29
2019-04-03T14:36:19.142Z,22.29
2019-04-03T14:38:43.582Z,22.29
2019-04-03T14:41:09.608Z,22.28
2019-04-03T14:43:35.683Z,22.29
2019-04-03T14:46:01.712Z,22.28
2019-04-03T14:48:27.699Z,22.28
2019-04-03T14:50:53.718Z,22.28
2019-04-03T14:53:21.242Z,22.28
2019-04-03T14:55:49.682Z,22.28
2019-04-03T14:58:12.083Z,22.28
2019-04-03T15:00:38.072Z,22.28
2019-04-03T15:03:04.838Z,22.27
2019-04-03T15:05:30.131Z,22.27
2019-04-03T15:07:56.138Z,22.27
2019-04-03T15:10:22.168Z,22.27
2019-04-03T15:12:48.218Z,22.26
2019-04-03T15:15:14.256Z,22.25
2019-04-03T15:17:40.282Z,22.24
2019-04-03T15:20:06.322Z,22.25
2019-04-03T15:22:33.201Z,22.24
2019-04-03T15:24:58.409Z,22.23
2019-04-03T15:27:25.576Z,22.23
2019-04-03T15:29:50.417Z,22.22
2019-04-03T15:32:18.701Z,22.22
2019-04-03T15:34:42.673Z,22.20
2019-04-03T15:37:09.141Z,22.20
2019-04-03T15:39:34.442Z,22.20
2019-04-03T15:42:00.866Z,22.19
2019-04-03T15:44:27.659Z,22.19
2019-04-03T15:46:52.820Z,22.19
2019-04-03T15:49:18.556Z,22.18
2019-04-03T15:51:44.476Z,22.18
2019-04-03T15:54:10.478Z,22.17
2019-04-03T15:56:36.741Z,22.17
2019-04-03T15:59:02.954Z,22.17
2019-04-03T16:01:28.798Z,22.17
2019-04-03T16:03:54.582Z,22.17
2019-04-03T16:06:20.553Z,22.16
2019-04-03T16:08:47.905Z,22.16
2019-04-03T16:11:12.610Z,22.15
2019-04-03T16:13:38.658Z,22.15
2019-04-03T16:16:05.138Z,22.14
2019-04-03T16:18:30.744Z,22.14
2019-04-03T16:20:57.220Z,22.14
2019-04-03T16:23:23.023Z,22.11
2019-04-03T16:25:49.755Z,22.12
2019-04-03T16:28:15.111Z,22.12
2019-04-03T16:30:40.793Z,22.12
2019-04-03T16:33:19.404Z,22.12
2019-04-03T16:35:33.791Z,22.10
2019-04-03T16:38:00.306Z,22.10
2019-04-03T16:40:25.904Z,22.11
2019-04-03T16:42:52.998Z,22.10
2019-04-03T16:45:17.963Z,22.09
2019-04-03T16:47:44.961Z,22.09
2019-04-03T16:50:09.968Z,22.09
2019-04-03T16:52:37.677Z,22.10
2019-04-03T16:55:02.322Z,22.10
2019-04-03T16:57:28.654Z,22.10
2019-04-03T16:59:54.165Z,22.10
2019-04-03T17:02:23.869Z,22.09
2019-04-03T17:04:46.187Z,22.10
2019-04-03T17:07:12.196Z,22.11
2019-04-03T17:09:39.298Z,22.12
2019-04-03T17:12:04.221Z,22.13
2019-04-03T17:14:30.250Z,22.14
2019-04-03T17:16:56.251Z,22.16
2019-04-03T17:19:22.500Z,22.16
2019-04-03T17:21:48.632Z,22.17
2019-04-03T17:24:16.070Z,22.17
2019-04-03T17:26:49.790Z,22.18
2019-04-03T17:29:06.906Z,22.20
2019-04-03T17:31:32.974Z,22.18
2019-04-03T17:33:58.886Z,22.20
2019-04-03T17:36:24.868Z,22.20
2019-04-03T17:38:50.864Z,22.20
2019-04-03T17:41:16.880Z,22.20
2019-04-03T17:43:43.325Z,22.19
2019-04-03T17:46:08.939Z,22.18
2019-04-03T17:48:34.943Z,22.18
2019-04-03T17:51:02.531Z,22.18
2019-04-03T17:53:26.964Z,22.18
2019-04-03T17:55:52.969Z,22.17
2019-04-03T17:58:19.084Z,22.16
2019-04-03T18:00:45.112Z,22.16
2019-04-03T18:03:11.152Z,22.17
2019-04-03T18:05:37.169Z,22.18
2019-04-03T18:08:03.182Z,22.19
2019-04-03T18:10:29.216Z,22.19
2019-04-03T18:12:55.251Z,22.18
2019-04-03T18:15:21.266Z,22.19
2019-04-03T18:17:47.261Z,22.19
2019-04-03T18:20:13.536Z,22.20
2019-04-03T18:22:39.412Z,22.21
2019-04-03T18:25:08.139Z,22.22
2019-04-03T18:27:33.240Z,22.22
2019-04-03T18:29:57.903Z,22.21
2019-04-03T18:32:23.940Z,22.20
2019-04-03T18:34:51.324Z,22.18
2019-04-03T18:37:16.045Z,22.17
2019-04-03T18:39:42.055Z,22.17
2019-04-03T18:42:08.075Z,22.17
2019-04-03T18:44:34.256Z,22.16
2019-04-03T18:47:00.390Z,22.15
2019-04-03T18:49:26.402Z,22.15
2019-04-03T18:51:52.409Z,22.14
2019-04-03T18:54:18.551Z,22.15
2019-04-03T18:56:45.977Z,22.14
2019-04-03T18:59:10.587Z,22.13
2019-04-03T19:01:37.974Z,22.13
2019-04-03T19:04:02.580Z,22.13
2019-04-03T19:06:28.618Z,22.12
2019-04-03T19:08:54.634Z,22.11
2019-04-03T19:11:20.627Z,22.13
2019-04-03T19:13:49.346Z,22.12
2019-04-03T19:16:16.558Z,22.12
2019-04-03T19:18:38.949Z,22.11
2019-04-03T19:21:04.951Z,22.11
2019-04-03T19:23:30.951Z,22.11
2019-04-03T19:25:59.667Z,22.11
2019-04-03T19:28:23.202Z,22.11
2019-04-03T19:30:49.263Z,22.12
2019-04-03T19:33:15.295Z,22.12
2019-04-03T19:35:41.306Z,22.12
2019-04-03T19:38:07.338Z,22.11
2019-04-03T19:40:33.343Z,22.11
2019-04-03T19:42:59.407Z,22.10
2019-04-03T19:45:25.456Z,22.11
2019-04-03T19:47:54.561Z,22.11
2019-04-03T19:50:17.486Z,22.11
2019-04-03T19:52:43.487Z,22.11
2019-04-03T19:55:09.533Z,22.12
2019-04-03T19:57:35.598Z,22.11
2019-04-03T20:00:03.170Z,22.12
2019-04-03T20:02:27.658Z,22.11
2019-04-03T20:04:53.674Z,22.11
2019-04-03T20:07:19.876Z,22.11
2019-04-03T20:09:45.933Z,22.13
2019-04-03T20:12:11.926Z,22.13
2019-04-03T20:14:37.933Z,22.14
2019-04-03T20:17:03.960Z,22.14
2019-04-03T20:19:29.972Z,22.14
2019-04-03T20:21:56.094Z,22.15
2019-04-03T20:24:24.976Z,22.16
2019-04-03T20:26:48.098Z,22.16
2019-04-03T20:29:14.090Z,22.16
2019-04-03T20:31:40.916Z,22.16
2019-04-03T20:34:06.103Z,22.17
2019-04-03T20:36:32.106Z,22.18
2019-04-03T20:38:58.408Z,22.18
2019-04-03T20:41:24.145Z,22.18
2019-04-03T20:43:50.183Z,22.17
2019-04-03T20:46:16.193Z,22.18
2019-04-03T20:48:42.218Z,22.18
2019-04-03T20:51:09.081Z,22.18
2019-04-03T20:53:34.400Z,22.18
2019-04-03T20:56:00.413Z,22.18
2019-04-03T20:58:26.408Z,22.18
2019-04-03T21:01:05.864Z,22.18
2019-04-03T21:03:18.421Z,22.19
2019-04-03T21:05:44.423Z,22.18
2019-04-03T21:08:10.423Z,22.19
2019-04-03T21:10:36.472Z,22.18
2019-04-03T21:13:02.469Z,22.19
2019-04-03T21:15:28.532Z,22.19
2019-04-03T21:17:54.560Z,22.18
2019-04-03T21:20:21.903Z,22.18
2019-04-03T21:22:46.638Z,22.18
2019-04-03T21:25:12.669Z,22.18
2019-04-03T21:27:40.188Z,22.18
2019-04-03T21:30:04.707Z,22.17
2019-04-03T21:32:30.719Z,22.17
2019-04-03T21:34:56.749Z,22.17
2019-04-03T21:37:22.743Z,22.17
2019-04-03T21:39:48.744Z,22.17
2019-04-03T21:42:14.794Z,22.16
2019-04-03T21:44:40.821Z,22.16
2019-04-03T21:47:06.808Z,22.15
2019-04-03T21:49:33.493Z,22.15
2019-04-03T21:51:59.487Z,22.15
2019-04-03T21:54:26.856Z,22.15
2019-04-03T21:56:51.507Z,22.15
2019-04-03T21:59:17.653Z,22.14
2019-04-03T22:01:45.259Z,22.13
2019-04-03T22:04:09.696Z,22.14
2019-04-03T22:06:35.707Z,22.14
2019-04-03T22:09:01.764Z,22.13
2019-04-03T22:11:27.788Z,22.13
2019-04-03T22:13:53.814Z,22.12
2019-04-03T22:16:20.577Z,22.12
2019-04-03T22:18:45.843Z,22.12
2019-04-03T22:21:11.860Z,22.12
2019-04-03T22:23:37.847Z,22.11
2019-04-03T22:26:03.884Z,22.11
2019-04-03T22:28:29.890Z,22.11
2019-04-03T22:30:55.943Z,22.11
2019-04-03T22:33:21.953Z,22.11
2019-04-03T22:35:47.964Z,22.10
2019-04-03T22:38:14.034Z,22.10
2019-04-03T22:40:40.797Z,22.10
2019-04-03T22:43:06.062Z,22.09
2019-04-03T22:45:32.069Z,22.10
2019-04-03T22:47:58.066Z,22.09
2019-04-03T22:50:24.097Z,22.09
2019-04-03T22:52:50.123Z,22.09
2019-04-03T22:55:16.142Z,22.08
2019-04-03T22:57:42.155Z,22.09
2019-04-03T23:00:08.181Z,22.08
2019-04-03T23:02:34.193Z,22.08
2019-04-03T23:05:00.187Z,22.08
2019-04-03T23:07:26.213Z,22.07
2019-04-03T23:09:52.206Z,22.07
2019-04-03T23:12:18.236Z,22.08
2019-04-03T23:14:44.260Z,22.07
2019-04-03T23:17:11.934Z,22.07
2019-04-03T23:19:36.274Z,22.07
2019-04-03T23:22:02.326Z,22.07
2019-04-03T23:24:28.922Z,22.06
2019-04-03T23:26:54.348Z,22.07
2019-04-03T23:29:20.348Z,22.06
2019-04-03T23:31:46.487Z,22.06
2019-04-03T23:34:12.483Z,22.06
2019-04-03T23:36:38.480Z,22.06
2019-04-03T23:39:04.510Z,22.06
2019-04-03T23:41:30.503Z,22.05
2019-04-03T23:43:56.517Z,22.05
2019-04-03T23:46:22.518Z,22.05
2019-04-03T23:48:49.020Z,22.05
2019-04-03T23:51:23.060Z,22.04
2019-04-03T23:53:40.537Z,22.05
2019-04-03T23:56:07.372Z,22.05
2019-04-03T23:58:32.662Z,22.04
